Time;durP1;ratioP1;P1;durP2;ratioP2;P2;SDS_P1;SDS_P2;PMS_P1;PMS_P2;Temp;Humidity;BMP_temperature;BMP_pressure;BME280_temperature;BME280_humidity;BME280_pressure;Samples;Min_cycle;Max_cycle;Signal;HPM_P1;HPM_P2
2024/03/31 00:00:05;;;;;;;88.20;13.53;;;;;;;15.77;78.58;99106.25;5211470;55;1140884;-80
2024/03/31 00:05:17;;;;;;;101.50;14.53;;;;;;;15.72;78.88;99105.50;5163059;55;1140595;-80
2024/03/31 00:10:23;;;;;;;74.90;13.83;;;;;;;15.69;79.19;99108.53;5161999;55;1142680;-80
2024/03/31 00:15:28;;;;;;;76.15;13.65;;;;;;;15.67;79.41;99113.22;5163097;55;1141009;-80
2024/03/31 00:20:34;;;;;;;103.33;14.37;;;;;;;15.67;79.67;99110.55;5183157;55;1140537;-78
2024/03/31 00:25:40;;;;;;;72.57;14.37;;;;;;;15.63;79.86;99109.27;5162497;55;1143011;-81
2024/03/31 00:30:55;;;;;;;87.33;12.83;;;;;;;15.60;80.00;99110.96;5162638;55;1140754;-81
2024/03/31 00:36:01;;;;;;;92.17;12.07;;;;;;;15.56;80.32;99101.70;5188815;55;1140835;-80
2024/03/31 00:41:07;;;;;;;92.22;13.65;;;;;;;15.51;80.41;99105.39;5174988;55;1140688;-82
2024/03/31 00:46:13;;;;;;;93.50;15.43;;;;;;;15.46;80.49;99091.78;5175234;55;1140954;-80
2024/03/31 00:51:19;;;;;;;64.90;12.27;;;;;;;15.41;80.73;99087.54;5174546;55;1140713;-81
2024/03/31 00:56:25;;;;;;;75.60;12.70;;;;;;;15.27;80.75;99085.20;5228721;55;1140483;-81
2024/03/31 01:01:31;;;;;;;97.00;17.60;;;;;;;15.09;81.13;99086.06;5251044;55;1140702;-78
2024/03/31 01:06:37;;;;;;;93.32;14.86;;;;;;;14.99;81.82;99100.13;5253631;55;1140949;-81
2024/03/31 01:11:43;;;;;;;90.73;15.93;;;;;;;14.87;82.04;99102.91;5273830;55;1140639;-79
2024/03/31 01:16:49;;;;;;;84.20;14.27;;;;;;;14.81;82.47;99095.67;5245913;55;1140939;-80
2024/03/31 01:21:54;;;;;;;99.77;13.13;;;;;;;14.72;82.94;99099.72;5240105;55;1140546;-81
2024/03/31 01:27:00;;;;;;;77.85;15.10;;;;;;;14.68;83.43;99094.43;5260795;55;1140536;-81
2024/03/31 01:32:06;;;;;;;70.60;13.93;;;;;;;14.64;83.52;99093.16;5240850;55;1140874;-82
2024/03/31 01:37:12;;;;;;;98.10;14.80;;;;;;;14.54;83.77;99103.70;5234181;55;1140735;-82
2024/03/31 01:42:19;;;;;;;76.87;12.77;;;;;;;14.36;83.56;99104.80;5217734;55;1140701;-81
2024/03/31 01:47:25;;;;;;;107.83;13.40;;;;;;;14.18;84.65;99104.78;5230798;55;1140550;-78
2024/03/31 01:52:30;;;;;;;96.60;12.53;;;;;;;13.95;84.42;99101.59;5181641;55;1142634;-82
2024/03/31 01:57:36;;;;;;;72.97;10.65;;;;;;;13.72;86.59;99106.88;5216712;55;1140567;-81
2024/03/31 02:02:42;;;;;;;88.63;10.80;;;;;;;13.68;87.23;99104.73;5237112;55;1140588;-79
2024/03/31 02:07:48;;;;;;;86.77;13.77;;;;;;;13.72;88.19;99108.70;5216522;55;1140948;-81
2024/03/31 02:12:53;;;;;;;80.67;13.07;;;;;;;13.74;87.93;99108.03;5213721;55;1140728;-78
2024/03/31 02:17:59;;;;;;;69.73;12.03;;;;;;;13.60;88.34;99095.45;5236256;55;1141091;-79
2024/03/31 02:23:05;;;;;;;89.50;12.18;;;;;;;13.58;88.95;99104.13;5216703;55;1140987;-81
2024/03/31 02:28:11;;;;;;;87.12;15.78;;;;;;;13.48;89.67;99104.80;5217206;55;1141064;-81
2024/03/31 02:33:16;;;;;;;75.43;11.97;;;;;;;13.41;90.95;99113.15;5237131;55;1140889;-80
2024/03/31 02:38:22;;;;;;;79.10;10.47;;;;;;;13.44;91.67;99107.50;5215731;55;1140741;-81
2024/03/31 02:43:28;;;;;;;70.37;11.95;;;;;;;13.50;92.17;99108.13;5206481;55;1140631;-82
2024/03/31 02:48:34;;;;;;;72.50;11.57;;;;;;;13.50;92.03;99104.97;5202045;55;1140719;-81
2024/03/31 02:53:41;;;;;;;60.83;12.07;;;;;;;13.48;92.45;99097.66;5151360;55;1140542;-82
2024/03/31 02:58:47;;;;;;;76.73;11.57;;;;;;;13.52;92.87;99100.81;5169960;55;1140931;-79
2024/03/31 03:03:53;;;;;;;86.20;15.37;;;;;;;13.53;93.35;99100.64;5250307;55;1140520;-79
2024/03/31 03:09:00;;;;;;;83.13;12.23;;;;;;;13.49;93.41;99102.48;5229880;55;1140578;-78
2024/03/31 03:14:07;;;;;;;79.85;13.05;;;;;;;13.52;94.22;99094.17;5229786;55;1140652;-79
2024/03/31 03:19:12;;;;;;;79.10;11.07;;;;;;;13.56;94.58;99094.99;5250022;55;1140901;-79
2024/03/31 03:24:20;;;;;;;75.83;11.93;;;;;;;13.58;94.68;99085.03;5229733;55;1140530;-80
2024/03/31 03:29:25;;;;;;;83.62;11.48;;;;;;;13.64;94.78;99080.33;5211202;55;1140517;-80
2024/03/31 03:34:32;;;;;;;84.83;11.40;;;;;;;13.68;94.57;99071.02;5172079;55;1140742;-81
2024/03/31 03:39:41;;;;;;;70.03;12.47;;;;;;;13.72;94.36;99072.33;5152107;55;1140556;-79
2024/03/31 03:44:47;;;;;;;79.53;10.10;;;;;;;13.73;94.07;99067.84;5086192;55;1140530;-81
2024/03/31 03:49:53;;;;;;;81.73;11.10;;;;;;;13.74;93.90;99060.20;5051071;57;1141087;-78
2024/03/31 03:54:59;;;;;;;78.90;11.03;;;;;;;13.71;93.87;99053.41;5031409;57;1140654;-78
2024/03/31 04:00:06;;;;;;;64.10;9.10;;;;;;;13.67;93.87;99056.58;5031537;57;1141086;-81
2024/03/31 04:05:13;;;;;;;70.08;9.93;;;;;;;13.65;93.99;99050.11;5049929;57;1138615;-77
2024/03/31 04:10:19;;;;;;;67.37;8.67;;;;;;;13.64;93.94;99056.42;5031435;57;1138694;-81
2024/03/31 04:15:25;;;;;;;70.45;9.08;;;;;;;13.68;93.82;99050.27;5031426;57;1138447;-80
2024/03/31 04:20:31;;;;;;;101.47;11.37;;;;;;;13.69;93.69;99049.27;5051077;57;1138414;-81
2024/03/31 04:25:36;;;;;;;71.67;11.30;;;;;;;13.71;93.55;99058.72;5031458;55;1142869;-80
2024/03/31 04:30:45;;;;;;;72.93;11.03;;;;;;;13.70;93.43;99061.55;5031528;55;1140649;-81
2024/03/31 04:35:51;;;;;;;66.27;10.03;;;;;;;13.67;93.29;99062.72;5051208;55;1140671;-79
2024/03/31 04:41:00;;;;;;;70.33;8.83;;;;;;;13.62;93.20;99066.39;5031386;55;1140637;-82
2024/03/31 04:46:09;;;;;;;82.90;9.00;;;;;;;13.57;93.38;99059.95;5165476;55;1138578;-79
2024/03/31 04:51:17;;;;;;;65.05;9.60;;;;;;;13.52;93.59;99067.61;5216250;55;1138785;-81
2024/03/31 04:56:23;;;;;;;60.43;9.00;;;;;;;13.52;93.68;99063.63;5195195;55;1138523;-79
2024/03/31 05:01:28;;;;;;;69.63;10.33;;;;;;;13.49;93.75;99079.91;5195126;55;1138560;-80
2024/03/31 05:06:35;;;;;;;69.07;10.32;;;;;;;13.44;93.93;99074.30;5215610;55;1141001;-78
2024/03/31 05:11:40;;;;;;;69.03;8.53;;;;;;;13.41;94.38;99071.98;5195646;55;1140516;-80
2024/03/31 05:16:46;;;;;;;61.17;8.43;;;;;;;13.39;94.51;99066.84;5195923;55;1138556;-79
2024/03/31 05:21:52;;;;;;;67.23;8.07;;;;;;;13.44;94.59;99072.47;5215768;55;1138455;-81
2024/03/31 05:26:58;;;;;;;56.50;8.35;;;;;;;13.46;94.86;99065.14;5195465;55;1138667;-82
2024/03/31 05:32:04;;;;;;;67.60;8.80;;;;;;;13.50;94.84;99063.80;5195648;55;1138839;-78
2024/03/31 05:37:20;;;;;;;56.13;7.87;;;;;;;13.54;94.77;99067.77;5193907;55;1138634;-81
2024/03/31 05:42:26;;;;;;;49.90;7.77;;;;;;;13.60;94.72;99055.60;5198093;55;1138405;-79
2024/03/31 05:47:32;;;;;;;57.70;8.40;;;;;;;13.66;94.75;99049.11;5211318;55;1138609;-80
2024/03/31 05:52:38;;;;;;;55.70;8.00;;;;;;;13.72;94.59;99051.58;5187639;55;1138771;-81
2024/03/31 05:57:44;;;;;;;44.77;6.60;;;;;;;13.80;94.35;99058.66;5184806;55;1138651;-81
2024/03/31 06:02:50;;;;;;;55.43;7.33;;;;;;;13.89;94.29;99061.61;5240615;55;1138430;-79
2024/03/31 06:07:56;;;;;;;50.13;7.90;;;;;;;13.92;94.02;99075.35;5232335;55;1138482;-79
2024/03/31 06:13:03;;;;;;;41.93;6.97;;;;;;;13.99;95.16;99074.16;5221182;55;1138460;-79
2024/03/31 06:18:09;;;;;;;49.67;8.73;;;;;;;14.07;95.76;99080.74;5217550;55;1138447;-79
2024/03/31 06:23:15;;;;;;;48.25;7.67;;;;;;;14.12;94.77;99090.86;5217474;55;1138435;-78
2024/03/31 06:28:22;;;;;;;55.10;7.73;;;;;;;14.15;94.68;99090.51;5148522;55;1138846;-81
2024/03/31 06:33:28;;;;;;;49.00;6.97;;;;;;;14.21;95.21;99082.64;5226717;55;1138745;-80
2024/03/31 06:38:35;;;;;;;53.13;7.47;;;;;;;14.26;94.52;99072.30;5194400;55;1138716;-80
2024/03/31 06:43:41;;;;;;;60.57;8.07;;;;;;;14.33;94.33;99061.80;5185304;55;1139024;-79
2024/03/31 06:48:46;;;;;;;55.97;8.27;;;;;;;14.41;94.21;99049.27;4910102;54;1139136;-81
2024/03/31 06:53:53;;;;;;;54.97;9.47;;;;;;;14.52;94.03;99037.87;4854386;59;1139527;-81
2024/03/31 06:58:58;;;;;;;53.52;8.25;;;;;;;14.61;93.37;99035.47;4859390;59;1138905;-79
2024/03/31 07:04:04;;;;;;;34.57;6.93;;;;;;;14.68;93.20;99023.08;4922588;58;1138858;-81
2024/03/31 07:09:11;;;;;;;49.42;7.30;;;;;;;14.80;93.33;99018.16;4903047;58;1138857;-79
2024/03/31 07:14:16;;;;;;;37.88;6.87;;;;;;;14.93;93.19;99014.35;4859331;58;1139243;-82
2024/03/31 07:19:23;;;;;;;45.93;7.93;;;;;;;15.10;93.98;99013.98;4859535;58;1138925;-82
2024/03/31 07:24:29;;;;;;;43.23;7.77;;;;;;;15.26;94.23;99013.47;4878112;58;1138978;-81
2024/03/31 07:29:35;;;;;;;63.23;8.07;;;;;;;15.43;94.82;99015.71;4858634;57;1138995;-80
2024/03/31 07:34:41;;;;;;;46.40;6.60;;;;;;;15.63;94.03;99020.48;4819499;59;1138480;-81
2024/03/31 07:39:46;;;;;;;49.03;5.83;;;;;;;15.79;92.01;99030.92;4803218;59;1138878;-80
2024/03/31 07:44:52;;;;;;;45.37;6.87;;;;;;;15.91;90.07;99024.58;4804938;59;1138599;-80
2024/03/31 07:49:58;;;;;;;39.57;6.07;;;;;;;16.00;88.88;99022.12;4861642;58;1138536;-80
2024/03/31 07:55:03;;;;;;;41.70;8.27;;;;;;;16.08;88.20;99025.98;4809447;59;1138950;-82
2024/03/31 08:00:09;;;;;;;47.33;5.47;;;;;;;16.17;87.34;99026.20;4786472;59;1138737;-80
2024/03/31 08:05:19;;;;;;;61.57;10.10;;;;;;;16.27;87.61;99029.86;4777530;59;1139064;-80
2024/03/31 08:10:25;;;;;;;35.88;5.50;;;;;;;16.36;86.20;99040.20;4773086;59;1140969;-81
2024/03/31 08:15:31;;;;;;;47.93;7.12;;;;;;;16.44;85.39;99045.92;4813019;58;1138659;-81
2024/03/31 08:20:37;;;;;;;65.67;6.70;;;;;;;16.51;83.89;99031.59;4785992;59;1139096;-82
2024/03/31 08:25:43;;;;;;;52.80;7.60;;;;;;;16.57;83.45;99044.69;4787437;59;1139035;-82
2024/03/31 08:30:49;;;;;;;52.20;5.90;;;;;;;16.62;82.39;99036.11;4811181;58;1139021;-82
2024/03/31 08:35:55;;;;;;;34.60;4.73;;;;;;;16.71;82.13;99031.79;4792045;59;1138647;-81
2024/03/31 08:41:08;;;;;;;37.23;7.03;;;;;;;16.77;80.78;99023.52;4792087;59;1139055;-82
2024/03/31 08:46:16;;;;;;;58.68;7.05;;;;;;;16.84;80.99;99021.70;4977224;57;1138675;-83
2024/03/31 08:51:22;;;;;;;40.00;5.50;;;;;;;16.91;79.02;99010.56;4821994;59;1138997;-81
2024/03/31 08:56:28;;;;;;;49.73;6.50;;;;;;;16.95;79.02;99003.00;4791852;59;1139012;-82
2024/03/31 09:01:36;;;;;;;46.83;6.03;;;;;;;16.98;79.87;99001.24;4777558;59;1139311;-83
2024/03/31 09:06:41;;;;;;;50.07;6.83;;;;;;;17.05;79.85;98986.91;4716953;59;1139153;-78
2024/03/31 09:11:47;;;;;;;39.87;8.03;;;;;;;17.12;79.15;99004.30;4722234;59;1139452;-84
2024/03/31 09:16:53;;;;;;;48.07;6.57;;;;;;;17.20;78.81;99000.14;4746257;59;1138989;-80
2024/03/31 09:21:59;;;;;;;47.17;7.17;;;;;;;17.26;77.56;99002.54;4744562;59;1138729;-81
2024/03/31 09:27:06;;;;;;;41.97;7.03;;;;;;;17.30;77.03;98997.09;4791083;59;1138818;-79
2024/03/31 09:32:16;;;;;;;54.70;8.03;;;;;;;17.34;76.45;98991.66;4810143;59;1138944;-78
2024/03/31 09:37:23;;;;;;;51.37;9.50;;;;;;;17.43;76.54;98987.78;4791549;59;1138852;-80
2024/03/31 09:42:29;;;;;;;56.50;8.33;;;;;;;17.58;76.50;98981.77;4791441;59;1138981;-82
2024/03/31 09:47:40;;;;;;;48.47;8.23;;;;;;;17.71;75.34;98973.84;4809848;59;1138864;-80
2024/03/31 09:52:52;;;;;;;42.97;7.57;;;;;;;17.85;73.32;98973.34;4811370;59;1138794;-80
2024/03/31 09:57:59;;;;;;;40.40;7.10;;;;;;;17.94;74.45;98972.11;4769714;59;1139020;-80
2024/03/31 10:03:10;;;;;;;48.23;5.80;;;;;;;18.08;75.02;98966.26;4850670;59;1139142;-79
2024/03/31 10:08:18;;;;;;;52.98;8.08;;;;;;;18.28;74.44;98974.61;4839521;59;1139261;-81
2024/03/31 10:13:27;;;;;;;39.43;8.03;;;;;;;18.48;73.07;98967.92;4775594;59;1138984;-80
2024/03/31 10:18:34;;;;;;;51.70;6.77;;;;;;;18.61;73.24;98965.25;4789811;59;1138728;-80
2024/03/31 10:23:42;;;;;;;54.27;12.53;;;;;;;18.72;72.50;98955.75;4850281;59;1138878;-81
2024/03/31 10:28:50;;;;;;;37.73;6.80;;;;;;;18.80;71.56;98967.56;4827639;59;1140768;-80
2024/03/31 14:27:52;;;;;;;45.52;6.92;;;;;;;22.94;52.17;98908.73;5244871;54;117383;-83
2024/03/31 14:32:57;;;;;;;52.70;9.25;;;;;;;22.90;52.42;98907.59;5096914;56;1237816;-82
2024/03/31 14:38:05;;;;;;;49.67;8.73;;;;;;;22.88;51.54;98899.74;5132263;56;1250337;-81
2024/03/31 14:43:11;;;;;;;64.37;10.13;;;;;;;22.94;50.80;98904.69;5109861;56;1251085;-82
2024/03/31 14:48:16;;;;;;;60.17;9.90;;;;;;;22.96;51.72;98905.27;5111185;56;1141128;-81
2024/03/31 14:53:23;;;;;;;50.64;8.78;;;;;;;23.06;52.01;98898.23;5123508;56;1138796;-83
2024/03/31 14:58:29;;;;;;;73.67;9.25;;;;;;;23.14;50.70;98901.06;5093830;56;1138809;-81
2024/03/31 15:03:35;;;;;;;53.00;7.70;;;;;;;23.13;49.38;98902.95;5111561;56;1139006;-81
2024/03/31 15:08:41;;;;;;;55.55;7.40;;;;;;;23.10;50.55;98888.58;5111571;56;1138678;-82
2024/03/31 15:13:47;;;;;;;53.83;8.38;;;;;;;23.06;49.32;98882.58;5127772;56;1138613;-80
2024/03/31 15:18:57;;;;;;;57.93;9.55;;;;;;;23.05;50.75;98879.59;5105252;56;1138593;-82
2024/03/31 15:24:06;;;;;;;55.17;9.95;;;;;;;23.00;49.67;98878.95;5111168;56;1138648;-81
2024/03/31 15:29:12;;;;;;;61.65;7.92;;;;;;;22.96;49.58;98873.73;5123564;56;1166430;-80
2024/03/31 15:34:17;;;;;;;61.80;8.78;;;;;;;22.94;50.55;98879.89;5109433;56;1139066;-81
2024/03/31 15:39:24;;;;;;;56.30;8.80;;;;;;;22.93;52.12;98881.48;5066587;56;1138722;-81
2024/03/31 15:44:30;;;;;;;77.30;9.35;;;;;;;22.81;55.88;98877.47;5022675;56;1138688;-80
2024/03/31 15:49:36;;;;;;;57.90;16.35;;;;;;;22.53;56.64;98868.77;5056706;56;1138622;-80
2024/03/31 15:54:41;;;;;;;59.70;17.00;;;;;;;22.32;58.97;98866.66;5053250;57;1141432;-80
2024/03/31 15:59:47;;;;;;;61.20;10.43;;;;;;;22.23;60.69;98862.70;5030010;56;1199543;-81
2024/03/31 16:04:53;;;;;;;63.02;8.58;;;;;;;22.10;61.68;98861.06;5024180;57;1140931;-80
2024/03/31 16:09:59;;;;;;;43.38;8.80;;;;;;;22.09;62.31;98864.81;5057556;57;1144060;-80
2024/03/31 16:15:06;;;;;;;41.30;6.20;;;;;;;22.02;62.50;98871.64;5057725;57;1138915;-81
2024/03/31 16:20:11;;;;;;;51.90;8.70;;;;;;;21.93;63.19;98870.84;5077410;57;1138707;-81
2024/03/31 16:25:17;;;;;;;50.50;8.00;;;;;;;21.87;63.97;98880.66;5058017;57;1138930;-80
2024/03/31 16:30:25;;;;;;;56.20;12.98;;;;;;;21.81;64.38;98880.78;5045803;57;1138741;-81
2024/03/31 16:35:31;;;;;;;55.08;12.58;;;;;;;21.72;65.16;98886.48;5056585;57;1140807;-81
2024/03/31 16:40:36;;;;;;;57.05;12.70;;;;;;;21.65;66.04;98886.30;5074520;57;1140641;-81
2024/03/31 16:45:44;;;;;;;50.00;11.48;;;;;;;21.49;65.87;98893.69;5057065;57;1140697;-81
2024/03/31 16:50:50;;;;;;;53.58;13.60;;;;;;;21.30;66.00;98893.73;5124147;55;1140842;-81
2024/03/31 16:55:56;;;;;;;64.42;13.78;;;;;;;21.18;67.26;98895.52;5162783;56;1140979;-81
2024/03/31 17:01:02;;;;;;;72.37;14.13;;;;;;;21.08;67.63;98891.22;5136481;56;1140844;-80
2024/03/31 17:06:08;;;;;;;65.20;15.68;;;;;;;20.92;68.46;98895.34;5132898;56;1140783;-80
2024/03/31 17:11:13;;;;;;;71.67;14.95;;;;;;;20.87;69.15;98895.70;5153512;56;1140556;-80
2024/03/31 17:16:20;;;;;;;67.35;16.70;;;;;;;20.75;69.71;98898.33;5133311;56;1140982;-81
2024/03/31 17:21:26;;;;;;;58.23;15.65;;;;;;;20.68;70.69;98890.33;5133412;56;1141164;-80
2024/03/31 17:26:31;;;;;;;77.10;15.20;;;;;;;20.66;71.58;98897.78;5133393;56;1140947;-81
2024/03/31 17:31:37;;;;;;;59.00;14.47;;;;;;;20.63;72.04;98902.77;5142434;56;1140927;-80
2024/03/31 17:36:43;;;;;;;70.75;15.93;;;;;;;20.52;72.03;98900.84;5113330;56;1141061;-81
2024/03/31 17:41:49;;;;;;;53.13;13.85;;;;;;;20.36;72.47;98901.71;5112630;55;1141015;-81
2024/03/31 17:46:54;;;;;;;77.53;22.32;;;;;;;20.25;72.57;98904.27;5150073;56;1140874;-80
2024/03/31 17:52:00;;;;;;;89.70;25.05;;;;;;;20.10;73.30;98909.98;5133019;56;1140558;-81
2024/03/31 17:57:06;;;;;;;112.83;26.52;;;;;;;19.92;73.73;98909.39;5133026;56;1140688;-81
2024/03/31 18:02:12;;;;;;;100.52;24.42;;;;;;;19.72;74.05;98907.89;5130713;56;1142800;-83
2024/03/31 18:07:17;;;;;;;98.07;25.70;;;;;;;19.59;75.20;98903.44;5116427;56;1142704;-80
2024/03/31 18:12:23;;;;;;;90.10;25.82;;;;;;;19.39;75.25;98904.89;5132571;56;1140892;-82
2024/03/31 18:17:29;;;;;;;91.63;26.55;;;;;;;19.16;76.03;98898.70;5133551;56;1140952;-81
2024/03/31 18:22:36;;;;;;;96.05;25.02;;;;;;;19.07;77.06;98895.98;5147742;56;1140605;-81
2024/03/31 18:27:41;;;;;;;104.65;32.63;;;;;;;18.93;77.56;98904.59;5133252;56;1140802;-82
2024/03/31 18:32:47;;;;;;;107.47;38.92;;;;;;;18.74;77.31;98900.63;5123006;56;1142824;-80
2024/03/31 18:37:53;;;;;;;78.85;25.45;;;;;;;18.58;77.66;98900.06;5128107;56;1142715;-82
2024/03/31 18:42:59;;;;;;;101.40;26.80;;;;;;;18.51;78.39;98903.73;5098426;56;1140632;-81
2024/03/31 18:48:05;;;;;;;85.28;29.07;;;;;;;18.45;78.78;98910.77;5066706;56;1142896;-81
2024/03/31 18:53:10;;;;;;;103.02;33.00;;;;;;;18.34;78.90;98900.67;5064186;57;1140504;-82
2024/03/31 18:58:16;;;;;;;108.50;38.50;;;;;;;18.30;79.47;98909.34;5043865;56;1143016;-80
2024/03/31 19:03:22;;;;;;;105.83;38.80;;;;;;;18.22;79.84;98913.88;5044034;56;1142956;-79
2024/03/31 19:08:28;;;;;;;93.12;31.50;;;;;;;18.05;79.58;98907.28;5044023;56;1143026;-79
2024/03/31 19:13:34;;;;;;;131.12;52.83;;;;;;;17.86;79.84;98900.11;5064277;57;1141056;-82
2024/03/31 19:18:41;;;;;;;116.35;46.92;;;;;;;17.74;80.80;98905.22;5048482;56;1143102;-83
2024/03/31 19:23:47;;;;;;;113.12;41.55;;;;;;;17.66;81.47;98901.93;5055269;56;1142943;-82
2024/03/31 19:28:56;;;;;;;87.57;37.75;;;;;;;17.49;81.94;98914.31;5080205;56;1143029;-79
2024/03/31 19:34:00;;;;;;;159.55;75.87;;;;;;;17.28;81.31;98914.45;5054270;56;1141043;-80
2024/03/31 19:39:05;;;;;;;119.00;51.92;;;;;;;17.12;81.68;98905.45;4915363;57;1142822;-81
2024/03/31 19:44:11;;;;;;;76.40;25.40;;;;;;;17.05;82.71;98905.95;4949252;56;1142943;-81
2024/03/31 19:49:17;;;;;;;66.60;20.90;;;;;;;17.02;82.89;98905.84;5025291;56;1140960;-83
2024/03/31 19:54:23;;;;;;;87.07;19.73;;;;;;;16.95;83.08;98897.50;5027352;57;1140708;-79
2024/03/31 19:59:28;;;;;;;72.47;18.25;;;;;;;16.86;83.33;98903.51;5055034;56;1141271;-82
2024/03/31 20:04:34;;;;;;;56.50;14.33;;;;;;;16.72;83.36;98897.80;5131053;56;1141022;-81
2024/03/31 20:09:40;;;;;;;83.10;22.93;;;;;;;16.75;84.17;98909.42;5110946;56;1140713;-80
2024/03/31 20:14:51;;;;;;;102.85;31.27;;;;;;;16.75;84.25;98910.25;5111729;55;1140801;-79
2024/03/31 20:19:53;;;;;;;103.10;33.50;;;;;;;16.71;84.28;98912.16;5130234;56;1143031;-81
2024/03/31 20:24:59;;;;;;;80.90;24.67;;;;;;;16.69;84.53;98913.69;5110641;56;1142816;-80
2024/03/31 20:30:05;;;;;;;98.97;26.57;;;;;;;16.53;84.25;98912.64;5111139;56;1140997;-80
2024/03/31 20:35:11;;;;;;;70.70;24.97;;;;;;;16.48;85.21;98921.25;5122755;56;1140916;-83
2024/03/31 20:40:17;;;;;;;73.53;22.90;;;;;;;16.44;85.45;98918.66;5056139;56;1140816;-81
2024/03/31 20:45:23;;;;;;;76.27;23.07;;;;;;;16.38;85.50;98922.60;5056682;56;1140872;-80
2024/03/31 20:50:28;;;;;;;75.73;27.93;;;;;;;16.34;86.11;98928.03;5001197;57;1150234;-83
2024/03/31 20:55:34;;;;;;;92.80;33.07;;;;;;;16.26;85.72;98935.66;4990721;58;1141097;-80
2024/03/31 21:00:40;;;;;;;106.30;30.90;;;;;;;16.22;86.51;98941.56;5022097;56;1140807;-80
2024/03/31 21:05:47;;;;;;;73.47;21.77;;;;;;;16.12;86.39;98939.25;5079135;56;1142875;-81
2024/03/31 21:10:53;;;;;;;76.20;23.30;;;;;;;16.00;86.32;98938.12;5065071;57;1140974;-79
2024/03/31 21:15:59;;;;;;;85.23;25.67;;;;;;;15.94;87.20;98937.04;5034897;56;1140983;-79
2024/03/31 21:21:05;;;;;;;70.57;19.03;;;;;;;15.85;86.77;98936.05;5056111;57;1140761;-81
2024/03/31 21:26:10;;;;;;;91.13;21.60;;;;;;;15.83;87.96;98940.23;5076445;57;1140945;-82
2024/03/31 21:31:18;;;;;;;86.60;24.50;;;;;;;15.76;86.81;98935.33;5056736;56;1140769;-82
2024/03/31 21:36:25;;;;;;;95.93;22.83;;;;;;;15.52;87.14;98940.51;4974823;57;1140823;-82
2024/03/31 21:41:32;;;;;;;87.50;24.43;;;;;;;15.33;87.71;98930.45;5030368;57;1141036;-79
2024/03/31 21:46:38;;;;;;;97.40;24.25;;;;;;;15.15;88.09;98933.52;4961595;57;1140754;-80
2024/03/31 21:51:43;;;;;;;96.70;24.57;;;;;;;15.07;88.88;98925.66;5034268;57;1140757;-82
2024/03/31 21:56:49;;;;;;;84.53;23.57;;;;;;;15.05;89.88;98928.50;4941865;57;1140890;-80
2024/03/31 22:01:55;;;;;;;86.90;22.13;;;;;;;15.10;90.50;98927.95;5031670;56;1140691;-79
2024/03/31 22:07:01;;;;;;;80.90;21.70;;;;;;;15.12;90.52;98933.92;5118362;56;1140756;-80
2024/03/31 22:12:07;;;;;;;78.67;20.77;;;;;;;15.16;90.89;98930.35;5023392;56;1141391;-78
2024/03/31 22:17:13;;;;;;;90.33;17.47;;;;;;;15.16;90.81;98929.84;5042607;56;1140716;-80
2024/03/31 22:22:18;;;;;;;88.30;17.07;;;;;;;15.18;91.09;98922.50;5022648;56;1140591;-79
2024/03/31 22:27:24;;;;;;;62.77;14.17;;;;;;;15.25;90.83;98925.25;5118674;56;1140578;-81
2024/03/31 22:32:30;;;;;;;81.07;15.53;;;;;;;15.20;90.04;98929.80;5023475;56;1150457;-82
2024/03/31 22:37:36;;;;;;;74.62;12.82;;;;;;;15.14;90.34;98938.02;5042689;56;1140805;-80
2024/03/31 22:42:42;;;;;;;69.32;13.65;;;;;;;15.06;90.37;98933.32;5071139;56;1140912;-82
2024/03/31 22:47:48;;;;;;;80.12;13.48;;;;;;;15.07;90.50;98939.80;4982870;56;1140952;-81
2024/03/31 22:52:53;;;;;;;103.77;21.37;;;;;;;15.08;90.53;98923.31;4990724;57;1140853;-80
2024/03/31 22:57:59;;;;;;;68.17;15.23;;;;;;;15.17;90.59;98911.53;4977963;56;1143148;-80
2024/03/31 23:03:05;;;;;;;75.40;15.80;;;;;;;15.27;90.40;98890.77;5057350;56;1140844;-82
2024/03/31 23:08:11;;;;;;;80.63;15.43;;;;;;;15.36;90.24;98884.29;5077624;56;1140748;-82
2024/03/31 23:13:16;;;;;;;66.83;14.47;;;;;;;15.34;89.48;98874.33;5057533;56;1141353;-79
2024/03/31 23:18:22;;;;;;;97.23;13.83;;;;;;;15.21;89.25;98880.02;5057275;56;1141227;-79
2024/03/31 23:23:28;;;;;;;69.77;12.13;;;;;;;15.09;89.43;98883.19;5057449;56;1141364;-81
2024/03/31 23:28:34;;;;;;;70.60;11.20;;;;;;;15.00;89.37;98880.30;5076831;56;1141097;-82
2024/03/31 23:33:40;;;;;;;71.15;12.40;;;;;;;14.87;89.42;98885.47;5057309;56;1140805;-80
2024/03/31 23:38:47;;;;;;;56.27;11.47;;;;;;;14.77;89.91;98880.45;5057756;56;1140789;-81
2024/03/31 23:43:53;;;;;;;61.17;12.17;;;;;;;14.63;89.69;98889.27;5077439;56;1140942;-82
2024/03/31 23:48:59;;;;;;;75.47;11.77;;;;;;;14.61;90.80;98899.27;5056800;56;1141059;-82
2024/03/31 23:54:05;;;;;;;78.27;15.47;;;;;;;14.66;91.23;98904.88;5057471;56;1140751;-78
2024/03/31 23:59:10;;;;;;;64.03;11.37;;;;;;;14.67;91.50;98906.50;5073063;56;1140606;-79
